sensor_id;sensor_type;location;lat;lon;timestamp;P1;durP1;ratioP1;P2;durP2;ratioP2
57826;SDS011;43656;57.746;11.780;2023-09-18T00:00:44;4.85;;;3.40;;
57826;SDS011;43656;57.746;11.780;2023-09-18T00:03:11;5.43;;;3.42;;
57826;SDS011;43656;57.746;11.780;2023-09-18T00:05:36;4.90;;;3.28;;
57826;SDS011;43656;57.746;11.780;2023-09-18T00:08:01;5.07;;;3.50;;
57826;SDS011;43656;57.746;11.780;2023-09-18T00:10:29;5.57;;;3.08;;
57826;SDS011;43656;57.746;11.780;2023-09-18T00:12:55;4.32;;;3.40;;
57826;SDS011;43656;57.746;11.780;2023-09-18T00:15:21;3.90;;;3.10;;
57826;SDS011;43656;57.746;11.780;2023-09-18T00:17:47;3.83;;;3.28;;
57826;SDS011;43656;57.746;11.780;2023-09-18T00:20:12;5.13;;;3.20;;
57826;SDS011;43656;57.746;11.780;2023-09-18T00:22:38;5.40;;;3.47;;
57826;SDS011;43656;57.746;11.780;2023-09-18T00:25:04;3.78;;;3.10;;
57826;SDS011;43656;57.746;11.780;2023-09-18T00:27:29;4.03;;;2.97;;
57826;SDS011;43656;57.746;11.780;2023-09-18T00:29:55;5.50;;;3.25;;
57826;SDS011;43656;57.746;11.780;2023-09-18T00:32:21;3.40;;;2.97;;
57826;SDS011;43656;57.746;11.780;2023-09-18T00:34:46;5.35;;;3.15;;
57826;SDS011;43656;57.746;11.780;2023-09-18T00:37:12;4.93;;;2.90;;
57826;SDS011;43656;57.746;11.780;2023-09-18T00:39:38;4.28;;;2.75;;
57826;SDS011;43656;57.746;11.780;2023-09-18T00:42:03;5.10;;;2.95;;
57826;SDS011;43656;57.746;11.780;2023-09-18T00:44:29;4.60;;;3.40;;
57826;SDS011;43656;57.746;11.780;2023-09-18T00:46:54;6.38;;;3.00;;
57826;SDS011;43656;57.746;11.780;2023-09-18T00:49:20;6.07;;;3.20;;
57826;SDS011;43656;57.746;11.780;2023-09-18T00:51:47;4.05;;;2.80;;
57826;SDS011;43656;57.746;11.780;2023-09-18T00:54:14;6.10;;;3.03;;
57826;SDS011;43656;57.746;11.780;2023-09-18T00:56:43;6.25;;;3.10;;
57826;SDS011;43656;57.746;11.780;2023-09-18T00:59:09;3.50;;;3.10;;
57826;SDS011;43656;57.746;11.780;2023-09-18T01:01:36;3.90;;;2.90;;
57826;SDS011;43656;57.746;11.780;2023-09-18T01:04:01;5.88;;;2.65;;
57826;SDS011;43656;57.746;11.780;2023-09-18T01:06:27;4.30;;;3.08;;
57826;SDS011;43656;57.746;11.780;2023-09-18T01:08:55;4.07;;;2.63;;
57826;SDS011;43656;57.746;11.780;2023-09-18T01:11:26;4.13;;;2.90;;
57826;SDS011;43656;57.746;11.780;2023-09-18T01:13:58;5.65;;;3.00;;
57826;SDS011;43656;57.746;11.780;2023-09-18T01:16:39;3.78;;;2.78;;
57826;SDS011;43656;57.746;11.780;2023-09-18T01:19:15;4.32;;;2.50;;
57826;SDS011;43656;57.746;11.780;2023-09-18T01:21:44;3.85;;;2.90;;
57826;SDS011;43656;57.746;11.780;2023-09-18T01:24:10;3.80;;;2.78;;
57826;SDS011;43656;57.746;11.780;2023-09-18T01:26:36;3.85;;;2.63;;
57826;SDS011;43656;57.746;11.780;2023-09-18T01:29:01;3.83;;;2.53;;
57826;SDS011;43656;57.746;11.780;2023-09-18T01:31:27;4.38;;;2.80;;
57826;SDS011;43656;57.746;11.780;2023-09-18T01:33:53;3.30;;;2.85;;
57826;SDS011;43656;57.746;11.780;2023-09-18T01:36:19;5.72;;;3.05;;
57826;SDS011;43656;57.746;11.780;2023-09-18T01:38:45;3.88;;;2.65;;
57826;SDS011;43656;57.746;11.780;2023-09-18T01:41:11;4.50;;;2.63;;
57826;SDS011;43656;57.746;11.780;2023-09-18T01:43:37;3.47;;;2.40;;
57826;SDS011;43656;57.746;11.780;2023-09-18T01:46:02;4.72;;;2.53;;
57826;SDS011;43656;57.746;11.780;2023-09-18T01:48:29;4.38;;;2.65;;
57826;SDS011;43656;57.746;11.780;2023-09-18T01:50:54;7.70;;;2.80;;
57826;SDS011;43656;57.746;11.780;2023-09-18T01:53:20;3.78;;;2.65;;
57826;SDS011;43656;57.746;11.780;2023-09-18T01:55:45;3.20;;;2.60;;
57826;SDS011;43656;57.746;11.780;2023-09-18T01:58:12;4.95;;;2.50;;
57826;SDS011;43656;57.746;11.780;2023-09-18T02:00:39;3.20;;;2.50;;
57826;SDS011;43656;57.746;11.780;2023-09-18T02:03:05;4.63;;;2.30;;
57826;SDS011;43656;57.746;11.780;2023-09-18T02:05:30;4.57;;;2.58;;
57826;SDS011;43656;57.746;11.780;2023-09-18T02:07:55;2.30;;;2.03;;
57826;SDS011;43656;57.746;11.780;2023-09-18T02:10:21;3.53;;;2.40;;
57826;SDS011;43656;57.746;11.780;2023-09-18T02:12:46;4.65;;;2.42;;
57826;SDS011;43656;57.746;11.780;2023-09-18T02:15:12;4.38;;;2.20;;
57826;SDS011;43656;57.746;11.780;2023-09-18T02:17:37;3.45;;;2.30;;
57826;SDS011;43656;57.746;11.780;2023-09-18T02:20:03;4.40;;;2.40;;
57826;SDS011;43656;57.746;11.780;2023-09-18T02:22:45;3.25;;;2.40;;
57826;SDS011;43656;57.746;11.780;2023-09-18T02:25:12;4.05;;;2.40;;
57826;SDS011;43656;57.746;11.780;2023-09-18T02:27:37;3.97;;;2.40;;
57826;SDS011;43656;57.746;11.780;2023-09-18T02:30:03;3.30;;;2.38;;
57826;SDS011;43656;57.746;11.780;2023-09-18T02:32:29;4.00;;;2.40;;
57826;SDS011;43656;57.746;11.780;2023-09-18T02:34:55;8.07;;;2.50;;
57826;SDS011;43656;57.746;11.780;2023-09-18T02:37:20;3.30;;;2.42;;
57826;SDS011;43656;57.746;11.780;2023-09-18T02:39:46;4.95;;;2.35;;
57826;SDS011;43656;57.746;11.780;2023-09-18T02:42:11;4.50;;;2.70;;
57826;SDS011;43656;57.746;11.780;2023-09-18T02:44:36;3.05;;;2.30;;
57826;SDS011;43656;57.746;11.780;2023-09-18T02:47:02;5.55;;;2.50;;
57826;SDS011;43656;57.746;11.780;2023-09-18T02:49:28;4.10;;;2.20;;
57826;SDS011;43656;57.746;11.780;2023-09-18T02:51:54;5.28;;;2.83;;
57826;SDS011;43656;57.746;11.780;2023-09-18T02:54:20;5.30;;;2.30;;
57826;SDS011;43656;57.746;11.780;2023-09-18T02:56:45;4.10;;;2.40;;
57826;SDS011;43656;57.746;11.780;2023-09-18T02:59:11;3.17;;;2.25;;
57826;SDS011;43656;57.746;11.780;2023-09-18T03:01:36;4.68;;;2.33;;
57826;SDS011;43656;57.746;11.780;2023-09-18T03:04:02;3.92;;;2.20;;
57826;SDS011;43656;57.746;11.780;2023-09-18T03:06:27;3.45;;;2.17;;
57826;SDS011;43656;57.746;11.780;2023-09-18T03:08:53;6.25;;;2.22;;
57826;SDS011;43656;57.746;11.780;2023-09-18T03:11:18;4.50;;;2.50;;
57826;SDS011;43656;57.746;11.780;2023-09-18T03:13:44;3.05;;;2.17;;
57826;SDS011;43656;57.746;11.780;2023-09-18T03:16:11;2.80;;;1.98;;
57826;SDS011;43656;57.746;11.780;2023-09-18T03:18:37;3.35;;;2.20;;
57826;SDS011;43656;57.746;11.780;2023-09-18T03:21:02;3.63;;;2.22;;
57826;SDS011;43656;57.746;11.780;2023-09-18T03:23:28;3.00;;;2.10;;
57826;SDS011;43656;57.746;11.780;2023-09-18T03:25:53;5.47;;;2.45;;
57826;SDS011;43656;57.746;11.780;2023-09-18T03:28:19;4.50;;;2.30;;
57826;SDS011;43656;57.746;11.780;2023-09-18T03:30:44;3.85;;;2.00;;
57826;SDS011;43656;57.746;11.780;2023-09-18T03:33:10;4.47;;;2.42;;
57826;SDS011;43656;57.746;11.780;2023-09-18T03:35:44;2.47;;;2.00;;
57826;SDS011;43656;57.746;11.780;2023-09-18T03:38:13;4.85;;;2.45;;
57826;SDS011;43656;57.746;11.780;2023-09-18T03:40:38;5.68;;;2.22;;
57826;SDS011;43656;57.746;11.780;2023-09-18T03:43:04;3.05;;;2.10;;
57826;SDS011;43656;57.746;11.780;2023-09-18T03:45:29;3.38;;;2.20;;
57826;SDS011;43656;57.746;11.780;2023-09-18T03:47:55;4.03;;;2.08;;
57826;SDS011;43656;57.746;11.780;2023-09-18T03:50:21;4.10;;;2.20;;
57826;SDS011;43656;57.746;11.780;2023-09-18T03:52:47;3.25;;;2.00;;
57826;SDS011;43656;57.746;11.780;2023-09-18T03:55:12;3.65;;;1.90;;
57826;SDS011;43656;57.746;11.780;2023-09-18T03:57:38;5.78;;;2.17;;
57826;SDS011;43656;57.746;11.780;2023-09-18T04:00:04;3.80;;;2.22;;
57826;SDS011;43656;57.746;11.780;2023-09-18T04:02:32;3.70;;;2.20;;
57826;SDS011;43656;57.746;11.780;2023-09-18T04:04:57;3.63;;;2.00;;
57826;SDS011;43656;57.746;11.780;2023-09-18T04:07:23;4.57;;;2.50;;
57826;SDS011;43656;57.746;11.780;2023-09-18T04:09:48;6.10;;;2.30;;
57826;SDS011;43656;57.746;11.780;2023-09-18T04:12:14;5.80;;;2.17;;
57826;SDS011;43656;57.746;11.780;2023-09-18T04:14:40;3.33;;;2.50;;
57826;SDS011;43656;57.746;11.780;2023-09-18T04:17:06;3.97;;;2.00;;
57826;SDS011;43656;57.746;11.780;2023-09-18T04:19:31;5.13;;;2.13;;
57826;SDS011;43656;57.746;11.780;2023-09-18T04:21:57;3.47;;;2.25;;
57826;SDS011;43656;57.746;11.780;2023-09-18T04:24:22;3.67;;;2.30;;
57826;SDS011;43656;57.746;11.780;2023-09-18T04:26:48;3.45;;;2.00;;
57826;SDS011;43656;57.746;11.780;2023-09-18T04:29:15;4.35;;;2.20;;
57826;SDS011;43656;57.746;11.780;2023-09-18T04:31:41;5.00;;;2.17;;
57826;SDS011;43656;57.746;11.780;2023-09-18T04:34:07;4.20;;;1.98;;
57826;SDS011;43656;57.746;11.780;2023-09-18T04:36:32;4.45;;;2.00;;
57826;SDS011;43656;57.746;11.780;2023-09-18T04:38:58;3.40;;;1.98;;
57826;SDS011;43656;57.746;11.780;2023-09-18T04:41:23;3.05;;;1.70;;
57826;SDS011;43656;57.746;11.780;2023-09-18T04:43:49;3.88;;;1.80;;
57826;SDS011;43656;57.746;11.780;2023-09-18T04:46:15;4.60;;;2.00;;
57826;SDS011;43656;57.746;11.780;2023-09-18T04:48:41;4.85;;;2.10;;
57826;SDS011;43656;57.746;11.780;2023-09-18T04:51:06;4.95;;;2.10;;
57826;SDS011;43656;57.746;11.780;2023-09-18T04:53:32;5.00;;;1.88;;
57826;SDS011;43656;57.746;11.780;2023-09-18T04:55:57;2.45;;;2.05;;
57826;SDS011;43656;57.746;11.780;2023-09-18T04:58:23;3.28;;;2.03;;
57826;SDS011;43656;57.746;11.780;2023-09-18T05:00:55;4.65;;;2.20;;
57826;SDS011;43656;57.746;11.780;2023-09-18T05:03:21;4.45;;;2.25;;
57826;SDS011;43656;57.746;11.780;2023-09-18T05:05:47;3.60;;;1.98;;
57826;SDS011;43656;57.746;11.780;2023-09-18T05:08:13;3.65;;;1.88;;
57826;SDS011;43656;57.746;11.780;2023-09-18T05:10:38;2.38;;;1.63;;
57826;SDS011;43656;57.746;11.780;2023-09-18T05:13:04;3.20;;;2.10;;
57826;SDS011;43656;57.746;11.780;2023-09-18T05:15:30;4.63;;;2.13;;
57826;SDS011;43656;57.746;11.780;2023-09-18T05:17:56;6.85;;;2.00;;
57826;SDS011;43656;57.746;11.780;2023-09-18T05:20:26;2.90;;;1.95;;
57826;SDS011;43656;57.746;11.780;2023-09-18T05:22:53;6.55;;;2.25;;
57826;SDS011;43656;57.746;11.780;2023-09-18T05:25:24;6.18;;;2.13;;
57826;SDS011;43656;57.746;11.780;2023-09-18T05:27:52;2.72;;;1.90;;
57826;SDS011;43656;57.746;11.780;2023-09-18T05:30:23;6.53;;;2.55;;
57826;SDS011;43656;57.746;11.780;2023-09-18T05:32:50;4.38;;;2.10;;
57826;SDS011;43656;57.746;11.780;2023-09-18T05:35:16;5.88;;;2.30;;
57826;SDS011;43656;57.746;11.780;2023-09-18T05:37:42;3.58;;;2.00;;
57826;SDS011;43656;57.746;11.780;2023-09-18T05:40:09;4.07;;;2.28;;
57826;SDS011;43656;57.746;11.780;2023-09-18T05:42:36;3.38;;;1.80;;
57826;SDS011;43656;57.746;11.780;2023-09-18T05:45:11;3.72;;;1.90;;
57826;SDS011;43656;57.746;11.780;2023-09-18T05:47:37;3.40;;;1.70;;
57826;SDS011;43656;57.746;11.780;2023-09-18T05:50:06;3.72;;;1.80;;
57826;SDS011;43656;57.746;11.780;2023-09-18T05:52:33;4.18;;;2.13;;
57826;SDS011;43656;57.746;11.780;2023-09-18T05:55:02;2.88;;;1.83;;
57826;SDS011;43656;57.746;11.780;2023-09-18T05:57:28;4.45;;;1.77;;
57826;SDS011;43656;57.746;11.780;2023-09-18T05:59:56;4.70;;;2.00;;
57826;SDS011;43656;57.746;11.780;2023-09-18T06:02:22;5.43;;;2.08;;
57826;SDS011;43656;57.746;11.780;2023-09-18T06:04:50;7.28;;;1.88;;
57826;SDS011;43656;57.746;11.780;2023-09-18T06:07:25;5.78;;;2.10;;
57826;SDS011;43656;57.746;11.780;2023-09-18T06:09:55;8.38;;;2.10;;
57826;SDS011;43656;57.746;11.780;2023-09-18T06:12:21;5.40;;;1.83;;
57826;SDS011;43656;57.746;11.780;2023-09-18T06:14:47;2.63;;;1.90;;
57826;SDS011;43656;57.746;11.780;2023-09-18T06:17:13;5.53;;;1.95;;
57826;SDS011;43656;57.746;11.780;2023-09-18T06:19:43;3.22;;;1.90;;
57826;SDS011;43656;57.746;11.780;2023-09-18T06:22:09;2.90;;;1.80;;
57826;SDS011;43656;57.746;11.780;2023-09-18T06:24:35;5.55;;;2.00;;
57826;SDS011;43656;57.746;11.780;2023-09-18T06:27:01;4.25;;;2.20;;
57826;SDS011;43656;57.746;11.780;2023-09-18T06:29:29;3.60;;;1.80;;
57826;SDS011;43656;57.746;11.780;2023-09-18T06:31:55;4.65;;;2.13;;
57826;SDS011;43656;57.746;11.780;2023-09-18T06:34:21;5.15;;;2.35;;
57826;SDS011;43656;57.746;11.780;2023-09-18T06:36:46;5.05;;;1.98;;
57826;SDS011;43656;57.746;11.780;2023-09-18T06:39:11;4.47;;;2.00;;
57826;SDS011;43656;57.746;11.780;2023-09-18T06:41:37;5.30;;;1.95;;
57826;SDS011;43656;57.746;11.780;2023-09-18T06:44:02;3.92;;;1.83;;
57826;SDS011;43656;57.746;11.780;2023-09-18T06:46:31;4.22;;;2.00;;
57826;SDS011;43656;57.746;11.780;2023-09-18T06:48:57;3.75;;;2.10;;
57826;SDS011;43656;57.746;11.780;2023-09-18T06:51:25;3.50;;;2.08;;
57826;SDS011;43656;57.746;11.780;2023-09-18T06:53:51;2.85;;;1.80;;
57826;SDS011;43656;57.746;11.780;2023-09-18T06:56:16;3.38;;;1.85;;
57826;SDS011;43656;57.746;11.780;2023-09-18T06:58:42;4.07;;;2.03;;
57826;SDS011;43656;57.746;11.780;2023-09-18T07:01:07;3.25;;;1.65;;
57826;SDS011;43656;57.746;11.780;2023-09-18T07:03:34;5.88;;;2.15;;
57826;SDS011;43656;57.746;11.780;2023-09-18T07:06:01;2.72;;;2.13;;
57826;SDS011;43656;57.746;11.780;2023-09-18T07:08:27;4.53;;;2.22;;
57826;SDS011;43656;57.746;11.780;2023-09-18T07:10:53;3.05;;;2.08;;
57826;SDS011;43656;57.746;11.780;2023-09-18T07:13:18;5.63;;;2.30;;
57826;SDS011;43656;57.746;11.780;2023-09-18T07:15:44;3.42;;;2.22;;
57826;SDS011;43656;57.746;11.780;2023-09-18T07:18:10;4.70;;;2.60;;
57826;SDS011;43656;57.746;11.780;2023-09-18T07:20:39;4.68;;;2.10;;
57826;SDS011;43656;57.746;11.780;2023-09-18T07:23:05;5.78;;;2.03;;
57826;SDS011;43656;57.746;11.780;2023-09-18T07:25:31;5.70;;;2.42;;
57826;SDS011;43656;57.746;11.780;2023-09-18T07:27:56;3.42;;;2.08;;
57826;SDS011;43656;57.746;11.780;2023-09-18T07:30:22;7.93;;;2.50;;
57826;SDS011;43656;57.746;11.780;2023-09-18T07:32:56;6.40;;;2.03;;
57826;SDS011;43656;57.746;11.780;2023-09-18T07:35:23;3.28;;;1.80;;
57826;SDS011;43656;57.746;11.780;2023-09-18T07:37:52;3.88;;;1.70;;
57826;SDS011;43656;57.746;11.780;2023-09-18T07:40:17;2.80;;;1.80;;
57826;SDS011;43656;57.746;11.780;2023-09-18T07:42:43;2.90;;;2.08;;
57826;SDS011;43656;57.746;11.780;2023-09-18T07:45:09;4.80;;;1.98;;
57826;SDS011;43656;57.746;11.780;2023-09-18T07:47:35;3.83;;;1.95;;
57826;SDS011;43656;57.746;11.780;2023-09-18T07:50:01;3.78;;;1.90;;
57826;SDS011;43656;57.746;11.780;2023-09-18T07:52:26;6.78;;;2.10;;
57826;SDS011;43656;57.746;11.780;2023-09-18T07:54:52;4.88;;;2.00;;
57826;SDS011;43656;57.746;11.780;2023-09-18T07:57:17;3.53;;;2.13;;
57826;SDS011;43656;57.746;11.780;2023-09-18T07:59:44;3.63;;;1.95;;
57826;SDS011;43656;57.746;11.780;2023-09-18T08:02:11;2.92;;;1.70;;
57826;SDS011;43656;57.746;11.780;2023-09-18T08:04:37;4.40;;;1.70;;
57826;SDS011;43656;57.746;11.780;2023-09-18T08:07:02;4.95;;;1.75;;
57826;SDS011;43656;57.746;11.780;2023-09-18T08:09:30;2.65;;;1.92;;
57826;SDS011;43656;57.746;11.780;2023-09-18T08:11:56;6.45;;;1.95;;
57826;SDS011;43656;57.746;11.780;2023-09-18T08:14:22;5.40;;;1.63;;
57826;SDS011;43656;57.746;11.780;2023-09-18T08:16:47;3.75;;;1.73;;
57826;SDS011;43656;57.746;11.780;2023-09-18T08:19:16;2.97;;;1.90;;
57826;SDS011;43656;57.746;11.780;2023-09-18T08:21:42;3.35;;;1.92;;
57826;SDS011;43656;57.746;11.780;2023-09-18T08:24:07;3.03;;;1.52;;
57826;SDS011;43656;57.746;11.780;2023-09-18T08:26:33;4.90;;;1.77;;
57826;SDS011;43656;57.746;11.780;2023-09-18T08:28:59;3.95;;;1.77;;
57826;SDS011;43656;57.746;11.780;2023-09-18T08:31:24;4.63;;;1.80;;
57826;SDS011;43656;57.746;11.780;2023-09-18T08:33:49;2.63;;;1.70;;
57826;SDS011;43656;57.746;11.780;2023-09-18T08:36:15;3.40;;;1.80;;
57826;SDS011;43656;57.746;11.780;2023-09-18T08:38:41;5.07;;;2.10;;
57826;SDS011;43656;57.746;11.780;2023-09-18T08:41:09;2.08;;;1.75;;
57826;SDS011;43656;57.746;11.780;2023-09-18T08:43:37;3.33;;;1.90;;
57826;SDS011;43656;57.746;11.780;2023-09-18T08:46:05;7.78;;;2.63;;
57826;SDS011;43656;57.746;11.780;2023-09-18T08:48:31;4.65;;;1.88;;
57826;SDS011;43656;57.746;11.780;2023-09-18T08:51:02;6.00;;;2.05;;
57826;SDS011;43656;57.746;11.780;2023-09-18T08:53:33;3.95;;;2.10;;
57826;SDS011;43656;57.746;11.780;2023-09-18T08:56:00;3.78;;;1.80;;
57826;SDS011;43656;57.746;11.780;2023-09-18T08:58:32;5.43;;;2.40;;
57826;SDS011;43656;57.746;11.780;2023-09-18T09:01:01;4.95;;;2.10;;
57826;SDS011;43656;57.746;11.780;2023-09-18T09:03:29;4.47;;;2.05;;
57826;SDS011;43656;57.746;11.780;2023-09-18T09:05:57;4.15;;;2.03;;
57826;SDS011;43656;57.746;11.780;2023-09-18T09:08:27;6.85;;;2.50;;
57826;SDS011;43656;57.746;11.780;2023-09-18T09:10:53;3.95;;;2.08;;
57826;SDS011;43656;57.746;11.780;2023-09-18T09:13:19;3.95;;;2.20;;
57826;SDS011;43656;57.746;11.780;2023-09-18T09:15:51;4.82;;;2.10;;
57826;SDS011;43656;57.746;11.780;2023-09-18T09:18:21;5.55;;;2.38;;
57826;SDS011;43656;57.746;11.780;2023-09-18T09:21:01;4.38;;;2.20;;
57826;SDS011;43656;57.746;11.780;2023-09-18T09:23:42;6.22;;;2.13;;
57826;SDS011;43656;57.746;11.780;2023-09-18T09:26:19;3.97;;;2.10;;
57826;SDS011;43656;57.746;11.780;2023-09-18T09:28:46;4.82;;;2.70;;
57826;SDS011;43656;57.746;11.780;2023-09-18T09:31:22;4.35;;;2.47;;
57826;SDS011;43656;57.746;11.780;2023-09-18T09:33:50;3.80;;;2.65;;
57826;SDS011;43656;57.746;11.780;2023-09-18T09:36:21;4.68;;;2.42;;
57826;SDS011;43656;57.746;11.780;2023-09-18T09:38:47;4.82;;;2.40;;
57826;SDS011;43656;57.746;11.780;2023-09-18T09:41:13;3.88;;;2.50;;
57826;SDS011;43656;57.746;11.780;2023-09-18T09:43:41;4.75;;;2.70;;
57826;SDS011;43656;57.746;11.780;2023-09-18T09:46:07;6.93;;;2.72;;
57826;SDS011;43656;57.746;11.780;2023-09-18T09:49:05;3.50;;;2.60;;
57826;SDS011;43656;57.746;11.780;2023-09-18T09:51:31;5.80;;;2.80;;
57826;SDS011;43656;57.746;11.780;2023-09-18T09:53:59;4.60;;;2.75;;
57826;SDS011;43656;57.746;11.780;2023-09-18T09:59:11;6.25;;;2.95;;
57826;SDS011;43656;57.746;11.780;2023-09-18T10:01:38;4.15;;;3.35;;
57826;SDS011;43656;57.746;11.780;2023-09-18T10:04:13;4.97;;;3.20;;
57826;SDS011;43656;57.746;11.780;2023-09-18T10:06:43;3.38;;;2.83;;
57826;SDS011;43656;57.746;11.780;2023-09-18T10:09:12;4.60;;;3.22;;
57826;SDS011;43656;57.746;11.780;2023-09-18T10:11:42;5.30;;;3.10;;
57826;SDS011;43656;57.746;11.780;2023-09-18T10:14:20;4.72;;;3.17;;
57826;SDS011;43656;57.746;11.780;2023-09-18T10:16:54;4.55;;;3.55;;
57826;SDS011;43656;57.746;11.780;2023-09-18T10:19:25;5.10;;;3.50;;
57826;SDS011;43656;57.746;11.780;2023-09-18T10:24:46;5.95;;;3.55;;
57826;SDS011;43656;57.746;11.780;2023-09-18T10:27:14;4.60;;;3.25;;
57826;SDS011;43656;57.746;11.780;2023-09-18T10:29:42;6.30;;;3.65;;
57826;SDS011;43656;57.746;11.780;2023-09-18T10:32:10;5.40;;;3.53;;
57826;SDS011;43656;57.746;11.780;2023-09-18T10:34:38;8.68;;;4.00;;
57826;SDS011;43656;57.746;11.780;2023-09-18T10:37:05;4.88;;;3.63;;
57826;SDS011;43656;57.746;11.780;2023-09-18T10:39:36;5.20;;;3.63;;
57826;SDS011;43656;57.746;11.780;2023-09-18T10:42:04;10.70;;;3.92;;
57826;SDS011;43656;57.746;11.780;2023-09-18T10:44:32;4.28;;;3.50;;
57826;SDS011;43656;57.746;11.780;2023-09-18T10:47:00;5.60;;;3.67;;
57826;SDS011;43656;57.746;11.780;2023-09-18T10:49:27;5.57;;;3.90;;
57826;SDS011;43656;57.746;11.780;2023-09-18T10:51:54;8.73;;;3.67;;
57826;SDS011;43656;57.746;11.780;2023-09-18T10:54:21;5.85;;;3.90;;
57826;SDS011;43656;57.746;11.780;2023-09-18T10:56:48;10.02;;;3.90;;
57826;SDS011;43656;57.746;11.780;2023-09-18T10:59:14;7.70;;;4.78;;
57826;SDS011;43656;57.746;11.780;2023-09-18T11:01:41;4.90;;;3.65;;
57826;SDS011;43656;57.746;11.780;2023-09-18T11:04:08;6.07;;;4.18;;
57826;SDS011;43656;57.746;11.780;2023-09-18T11:09:23;5.82;;;4.03;;
57826;SDS011;43656;57.746;11.780;2023-09-18T11:11:53;8.43;;;3.80;;
57826;SDS011;43656;57.746;11.780;2023-09-18T11:14:23;7.00;;;4.00;;
57826;SDS011;43656;57.746;11.780;2023-09-18T11:17:06;4.95;;;3.80;;
57826;SDS011;43656;57.746;11.780;2023-09-18T11:19:57;5.55;;;3.80;;
57826;SDS011;43656;57.746;11.780;2023-09-18T11:22:27;5.38;;;4.07;;
57826;SDS011;43656;57.746;11.780;2023-09-18T11:24:52;5.13;;;3.90;;
57826;SDS011;43656;57.746;11.780;2023-09-18T11:27:23;8.00;;;4.40;;
57826;SDS011;43656;57.746;11.780;2023-09-18T11:29:51;5.00;;;3.80;;
57826;SDS011;43656;57.746;11.780;2023-09-18T11:32:36;10.23;;;4.00;;
57826;SDS011;43656;57.746;11.780;2023-09-18T11:35:06;5.85;;;3.78;;
57826;SDS011;43656;57.746;11.780;2023-09-18T11:37:33;7.32;;;4.00;;
57826;SDS011;43656;57.746;11.780;2023-09-18T11:39:59;4.78;;;3.75;;
57826;SDS011;43656;57.746;11.780;2023-09-18T11:42:25;5.25;;;3.95;;
57826;SDS011;43656;57.746;11.780;2023-09-18T11:44:52;5.55;;;4.20;;
57826;SDS011;43656;57.746;11.780;2023-09-18T11:47:19;5.30;;;4.18;;
57826;SDS011;43656;57.746;11.780;2023-09-18T11:49:53;7.20;;;4.38;;
57826;SDS011;43656;57.746;11.780;2023-09-18T11:52:23;6.90;;;3.85;;
57826;SDS011;43656;57.746;11.780;2023-09-18T11:54:50;5.40;;;4.57;;
57826;SDS011;43656;57.746;11.780;2023-09-18T11:57:19;7.85;;;4.15;;
57826;SDS011;43656;57.746;11.780;2023-09-18T11:59:44;4.93;;;4.13;;
57826;SDS011;43656;57.746;11.780;2023-09-18T12:04:59;5.97;;;4.10;;
57826;SDS011;43656;57.746;11.780;2023-09-18T12:07:31;7.70;;;4.75;;
57826;SDS011;43656;57.746;11.780;2023-09-18T12:09:57;5.15;;;4.22;;
57826;SDS011;43656;57.746;11.780;2023-09-18T12:12:22;6.47;;;4.80;;
57826;SDS011;43656;57.746;11.780;2023-09-18T12:14:48;7.13;;;4.43;;
57826;SDS011;43656;57.746;11.780;2023-09-18T12:17:14;7.45;;;4.70;;
57826;SDS011;43656;57.746;11.780;2023-09-18T12:19:50;7.50;;;4.80;;
57826;SDS011;43656;57.746;11.780;2023-09-18T12:22:28;5.40;;;4.90;;
57826;SDS011;43656;57.746;11.780;2023-09-18T12:27:41;6.63;;;4.97;;
57826;SDS011;43656;57.746;11.780;2023-09-18T12:30:07;9.07;;;4.65;;
57826;SDS011;43656;57.746;11.780;2023-09-18T12:32:40;7.82;;;4.70;;
57826;SDS011;43656;57.746;11.780;2023-09-18T12:35:05;5.97;;;4.93;;
57826;SDS011;43656;57.746;11.780;2023-09-18T12:37:41;6.25;;;5.15;;
57826;SDS011;43656;57.746;11.780;2023-09-18T12:40:20;10.25;;;5.20;;
57826;SDS011;43656;57.746;11.780;2023-09-18T12:42:48;7.05;;;5.00;;
57826;SDS011;43656;57.746;11.780;2023-09-18T12:45:14;8.93;;;5.30;;
57826;SDS011;43656;57.746;11.780;2023-09-18T12:47:40;9.73;;;6.05;;
57826;SDS011;43656;57.746;11.780;2023-09-18T12:50:07;6.55;;;5.20;;
57826;SDS011;43656;57.746;11.780;2023-09-18T12:52:32;7.30;;;5.63;;
57826;SDS011;43656;57.746;11.780;2023-09-18T12:54:58;8.13;;;5.40;;
57826;SDS011;43656;57.746;11.780;2023-09-18T12:57:26;6.20;;;5.60;;
57826;SDS011;43656;57.746;11.780;2023-09-18T12:59:53;7.35;;;5.90;;
57826;SDS011;43656;57.746;11.780;2023-09-18T13:02:20;7.38;;;5.38;;
57826;SDS011;43656;57.746;11.780;2023-09-18T13:04:52;7.70;;;5.80;;
57826;SDS011;43656;57.746;11.780;2023-09-18T13:07:22;6.07;;;5.18;;
57826;SDS011;43656;57.746;11.780;2023-09-18T13:10:02;6.80;;;6.05;;
57826;SDS011;43656;57.746;11.780;2023-09-18T13:17:46;9.05;;;6.43;;
57826;SDS011;43656;57.746;11.780;2023-09-18T13:20:16;9.00;;;6.28;;
57826;SDS011;43656;57.746;11.780;2023-09-18T13:22:48;8.13;;;5.68;;
57826;SDS011;43656;57.746;11.780;2023-09-18T13:25:25;9.07;;;6.20;;
57826;SDS011;43656;57.746;11.780;2023-09-18T13:27:53;7.55;;;6.22;;
57826;SDS011;43656;57.746;11.780;2023-09-18T13:30:19;7.88;;;6.68;;
57826;SDS011;43656;57.746;11.780;2023-09-18T13:32:47;7.70;;;6.47;;
57826;SDS011;43656;57.746;11.780;2023-09-18T13:35:15;10.93;;;6.88;;
57826;SDS011;43656;57.746;11.780;2023-09-18T13:37:41;15.07;;;7.00;;
57826;SDS011;43656;57.746;11.780;2023-09-18T13:40:08;10.35;;;6.18;;
57826;SDS011;43656;57.746;11.780;2023-09-18T13:42:35;7.85;;;6.00;;
57826;SDS011;43656;57.746;11.780;2023-09-18T13:45:03;7.20;;;6.13;;
57826;SDS011;43656;57.746;11.780;2023-09-18T13:47:31;7.13;;;6.10;;
57826;SDS011;43656;57.746;11.780;2023-09-18T13:49:57;12.30;;;6.38;;
57826;SDS011;43656;57.746;11.780;2023-09-18T13:52:27;14.80;;;6.65;;
57826;SDS011;43656;57.746;11.780;2023-09-18T13:54:54;9.07;;;6.72;;
57826;SDS011;43656;57.746;11.780;2023-09-18T13:57:19;8.60;;;6.32;;
57826;SDS011;43656;57.746;11.780;2023-09-18T13:59:46;8.82;;;6.10;;
57826;SDS011;43656;57.746;11.780;2023-09-18T14:02:13;9.43;;;6.55;;
57826;SDS011;43656;57.746;11.780;2023-09-18T14:04:39;11.00;;;6.68;;
57826;SDS011;43656;57.746;11.780;2023-09-18T14:07:05;10.32;;;6.30;;
57826;SDS011;43656;57.746;11.780;2023-09-18T14:09:31;9.57;;;6.45;;
57826;SDS011;43656;57.746;11.780;2023-09-18T14:11:57;9.02;;;6.90;;
57826;SDS011;43656;57.746;11.780;2023-09-18T14:14:23;9.65;;;5.78;;
57826;SDS011;43656;57.746;11.780;2023-09-18T14:16:49;8.02;;;6.70;;
57826;SDS011;43656;57.746;11.780;2023-09-18T14:19:16;8.82;;;6.28;;
57826;SDS011;43656;57.746;11.780;2023-09-18T14:21:42;10.13;;;6.47;;
57826;SDS011;43656;57.746;11.780;2023-09-18T14:24:08;8.93;;;6.70;;
57826;SDS011;43656;57.746;11.780;2023-09-18T14:26:34;9.00;;;6.30;;
57826;SDS011;43656;57.746;11.780;2023-09-18T14:29:08;7.97;;;6.53;;
57826;SDS011;43656;57.746;11.780;2023-09-18T14:31:38;7.90;;;6.05;;
57826;SDS011;43656;57.746;11.780;2023-09-18T14:34:05;11.32;;;6.82;;
57826;SDS011;43656;57.746;11.780;2023-09-18T14:36:31;10.65;;;6.63;;
57826;SDS011;43656;57.746;11.780;2023-09-18T14:38:59;10.18;;;6.40;;
57826;SDS011;43656;57.746;11.780;2023-09-18T14:41:25;7.55;;;6.28;;
57826;SDS011;43656;57.746;11.780;2023-09-18T14:43:51;7.60;;;6.00;;
57826;SDS011;43656;57.746;11.780;2023-09-18T14:46:17;8.13;;;5.85;;
57826;SDS011;43656;57.746;11.780;2023-09-18T14:48:43;9.23;;;6.38;;
57826;SDS011;43656;57.746;11.780;2023-09-18T14:51:08;8.65;;;5.80;;
57826;SDS011;43656;57.746;11.780;2023-09-18T14:53:34;7.75;;;6.30;;